Ningbo Lishe International

Airport
ICAO code: 
ZSNB
Summary
ICAO Region: 
APAC
Territory: 
Location: 
Ningbo, Yangtze River,
Coordinates: 
Aerial View: 
29° 49' 36.001" N, 121° 27' 42.998" E
Metar
Observation
ZSNB 071500Z 33002MPS 300V360 7000 BKN033 12/08 Q1030 NOSIG
Station
NINGBO/LISHE
Date/Time
2021-12-07 15:00:00
Wind direction
330°
Lowest cloud amount
broken clouds
Temperature
12°C
Dew point
8°C
Humidity
76%
QNH
1030 hPa
Weather condition
n/a

Ningbo Lishe International Airport (IATA: NGB) is the principal airport serving Ningbo, a major city in the Yangtze River Delta region.

Runways

Designator Length Width Surface Rops
13/31 3200 45 CON Yes/Yes
Airport map: 
Aerial View: 

SKYbrary Partners:

Safety knowledge contributed by: